Station: Orbost  

  Atmospheric Gas Attenuation - ITU Rec 676-11   ----------------- dB/100km -----------------
Date Time Temp RH % AH g/m3 Dew Point Wind Direction Speed kph Gust kph Barometer mB Rainfall Since 9am 24GHz 47GHz 76GHz 122GHz 134GHz 241GHz
08/05 12:30 15.2 70 9.09 9.8 17 32 1018 0 20.6 26.5 41.3 108.3 103.5 356.3
08/05 12:20 15.2 69 8.96 9.7 15 20 1018.1 0 20.3 26.2 40.7 106.9 101.7 350.3
08/05 12:10 14.9 69 8.79 9.4 24 28 1018.1 0 19.9 26.1 40.2 105.5 99.9 343.8
08/05 12:00 14.7 72 9.07 9.7 24 43 1018.1 0 20.5 26.6 41.4 108.8 103.9 357.7
08/05 11:50 14.7 68 8.56 9 26 32 1017.9 0 19.5 25.7 39.4 103.3 97.1 334.1
08/05 11:40 14.4 70 8.65 9 28 35 1018 0 19.7 26.0 39.9 104.7 98.7 339.5
08/05 11:30 15.2 64 8.31 8.4 28 41 1018.1 0 18.9 25.2 38.2 100.1 93.3 320.7
08/05 11:20 15.1 67 8.64 9 24 32 1018 0 19.6 25.8 39.5 103.7 97.7 336.1
08/05 11:10 14.8 68 8.61 9.1 32 39 1017.9 0 19.6 25.8 39.5 103.7 97.6 335.9
08/05 11:00 14.7 67 8.44 8.6 24 41 1017.9 0 19.2 25.6 38.9 102.1 95.6 328.6
08/05 10:50 15 66 8.46 8.7 28 35 1017.8 0 19.2 25.5 38.8 101.9 95.4 328.2
08/05 10:40 15.2 66 8.57 8.9 30 35 1017.6 0 19.5 25.6 39.2 102.7 96.6 332.3
08/05 10:30 15 66 8.46 8.7 30 48 1017.5 0 19.2 25.5 38.8 101.8 95.4 328.2
08/05 10:20 15.4 65 8.54 8.8 19 26 1017.3 0 19.4 25.5 38.9 102.1 95.9 330.1
08/05 10:10 14.7 67 8.44 8.6 32 54 1017.2 0 19.2 25.5 38.9 102.0 95.5 328.4
08/05 10:00 14.5 69 8.58 8.9 26 37 1017.3 0 19.5 25.8 39.5 103.7 97.6 335.7
08/05 09:50 14.4 72 8.9 9.4 19 24 1017.2 0 20.2 26.4 40.9 107.3 101.9 350.9
08/05 09:40 14.3 72 8.85 9.3 20 24 1017.2 0 20.1 26.3 40.7 106.9 101.4 349.0
08/05 09:30 14.2 73 8.91 9.4 24 46 1017.2 0 20.2 26.4 41.0 107.7 102.3 352.2
08/05 09:20 14 74 8.93 9.4 22 28 1017.1 0 20.3 26.5 41.2 108.1 102.8 354.0
08/05 09:10 13.7 76 9 9.5 20 28 1017.1 0 20.4 26.7 41.6 109.3 104.2 358.7
08/05 09:00 14 74 8.93 9.4 22 50 1017 0 20.3 26.5 41.2 108.1 102.8 354.0
08/05 08:50 13.9 76 9.11 9.7 19 24 1016.7 1 20.7 26.8 42.0 110.2 105.4 362.8
08/05 08:40 13.8 76 9.06 9.6 32 39 1016.5 1 20.6 26.8 41.8 109.8 104.8 360.9
08/05 08:30 13.5 77 9.01 9.6 22 35 1016.4 1 20.5 26.8 41.8 109.6 104.5 359.9
08/05 08:20 13.2 79 9.07 9.6 28 39 1016.3 1 20.6 27.0 42.2 110.7 105.7 364.1
08/05 08:10 13.1 80 9.13 9.7 19 26 1016.2 1 20.8 27.1 42.5 111.5 106.7 367.4
08/05 08:00 12.8 82 9.19 9.8 22 35 1016.1 1 20.9 27.3 42.9 112.6 107.9 371.6
08/05 07:50 12.6 83 9.18 9.9 28 33 1015.9 1 20.9 27.3 42.9 112.7 108.0 372.0
08/05 07:40 12.3 87 9.45 10.3 19 26 1016.1 0.8 21.5 27.9 44.2 116.2 112.2 386.6
08/05 07:30 12.2 88 9.5 10.3 17 24 1016.1 0.8 21.6 28.0 44.5 117.0 113.1 389.6
08/05 07:20 12.1 87 9.33 10.1 19 24 1015.9 0.8 21.2 27.7 43.8 115.2 110.8 381.7
08/05 07:10 12 89 9.49 10.2 17 20 1015.8 0.8 21.6 28.0 44.6 117.1 113.2 390.0
08/05 07:00 12.1 88 9.44 10.2 22 37 1015.5 0.8 21.5 27.9 44.3 116.4 112.3 387.0
08/05 06:50 12.2 86 9.28 9.9 24 30 1015.5 0.8 21.1 27.6 43.5 114.4 110.0 378.7
08/05 06:40 12.3 85 9.23 9.8 22 32 1015.6 0.8 21.0 27.5 43.3 113.7 109.1 375.8
08/05 06:30 12 88 9.38 10.1 17 28 1015.6 0.8 21.4 27.8 44.1 115.8 111.6 384.6
08/05 06:20 12.2 86 9.28 9.9 17 20 1015.3 0.8 21.1 27.6 43.5 114.4 109.9 378.6
08/05 06:10 12.1 87 9.33 10 19 26 1015.3 0.8 21.2 27.7 43.8 115.1 110.8 381.5
08/05 06:00 12.3 84 9.12 9.7 30 48 1015.2 0.8 20.8 27.3 42.8 112.4 107.6 370.4
08/05 05:50 13.6 71 8.36 8.4 20 30 1015 0.8 19.1 25.6 39.0 102.3 95.6 328.7
08/05 05:40 13.7 70 8.29 8.3 28 33 1014.7 0.8 18.9 25.5 38.7 101.4 94.6 325.0
08/05 05:30 13.5 71 8.31 8.4 24 41 1014.6 0.8 19.0 25.6 38.8 101.9 95.1 326.8
08/05 05:20 13.6 70 8.24 8.2 30 43 1014.5 0.8 18.8 25.4 38.5 101.0 94.0 323.1
08/05 05:10 13.9 66 7.91 7.8 32 37 1014.4 0.8 18.1 24.8 37.1 97.1 89.4 306.9
08/05 05:00 13.9 65 7.79 7.4 26 43 1014.3 0.8 17.9 24.6 36.6 95.9 87.8 301.5
08/05 04:50 14 64 7.72 7.3 32 44 1014.3 0.8 17.7 24.5 36.3 95.0 86.8 298.0
08/05 04:40 13.9 62 7.43 6.9 26 33 1014 0.8 17.1 24.0 35.2 92.1 83.2 285.3
08/05 04:30 14.1 62 7.52 6.9 20 37 1013.9 0.8 17.3 24.1 35.4 92.8 84.1 288.6
08/05 04:20 14.1 61 7.4 6.7 24 37 1013.9 0.8 17.0 23.9 35.0 91.6 82.6 283.3
08/05 04:10 13.8 62 7.39 6.6 26 35 1013.8 0.8 17.0 24.0 35.1 91.8 82.8 283.9
08/05 04:00 14 61 7.36 6.6 22 41 1013.6 0.8 16.9 23.9 34.9 91.3 82.2 281.8
08/05 03:50 13.8 61 7.27 6.4 24 33 1013.6 0.8 16.8 23.8 34.6 90.6 81.3 278.5
08/05 03:40 13.6 62 7.3 6.4 24 28 1013.7 0.8 16.8 23.9 34.8 91.1 81.9 280.6
08/05 03:30 13.6 61 7.18 6.2 17 30 1013.8 0.8 16.6 23.7 34.4 89.9 80.4 275.3
08/05 03:20 13.6 61 7.18 6.2 19 28 1013.9 0.8 16.6 23.7 34.4 89.9 80.4 275.3
08/05 03:10 13.4 61 7.09 6 15 22 1014.1 0.8 16.4 23.7 34.1 89.3 79.5 272.1
08/05 03:00 13.6 59 6.94 5.7 19 32 1014.3 0.8 16.1 23.4 33.5 87.5 77.4 264.9
08/05 02:50 13.6 58 6.83 5.5 22 30 1014.4 0.8 15.8 23.2 33.1 86.4 76.0 260.1
08/05 02:40 13.6 58 6.83 5.5 19 26 1014.3 0.8 15.8 23.2 33.1 86.4 76.0 260.1
08/05 02:30 13.4 57 6.63 5.1 19 32 1014.3 0.8 15.4 23.0 32.4 84.6 73.8 252.1
08/05 02:20 13.3 56 6.47 4.9 19 22 1014.5 0.8 15.1 22.7 31.8 83.2 71.9 245.5
08/05 02:10 13.1 58 6.62 5 17 20 1014.6 0.8 15.4 23.0 32.5 84.9 73.9 252.7
08/05 02:00 13 57 6.46 4.7 17 26 1014.6 0.8 15.1 22.8 31.9 83.4 72.1 246.0
08/05 01:50 12.9 57 6.42 4.6 17 20 1014.7 0.8 15.0 22.8 31.8 83.1 71.7 244.6
08/05 01:40 12.4 59 6.45 4.6 13 15 1014.8 0.8 15.1 23.0 32.1 83.9 72.5 247.5
08/05 01:30 12.4 59 6.45 4.6 13 28 1015 0.8 15.1 23.0 32.1 83.9 72.5 247.5
08/05 01:20 12.2 58 6.26 4.2 11 17 1015.1 0.8 14.7 22.7 31.5 82.3 70.3 239.9
08/05 01:10 12.1 58 6.22 4.1 17 24 1015.5 0.8 14.6 22.7 31.4 82.0 70.0 238.6
08/05 01:00 11.5 59 6.1 3.8 13 19 1015.5 0.8 14.4 22.7 31.2 81.4 69.0 235.1
08/05 00:50 11.4 58 5.95 3.6 11 15 1015.6 0.8 14.0 22.5 30.7 80.0 67.2 228.9
08/05 00:40 11.3 58 5.92 3.5 15 20 1015.7 0.8 14.0 22.5 30.6 79.8 67.0 227.9
08/05 00:30 11.1 59 5.94 3.4 17 22 1015.9 0.8 14.0 22.5 30.8 80.2 67.4 229.4
08/05 00:20 10.9 60 5.97 3.4 15 19 1015.9 0.8 14.1 22.6 31.0 80.7 67.9 231.3
08/05 00:10 10.8 60 5.93 3.3 17 19 1016 0.8 14.0 22.6 30.8 80.5 67.5 229.9
08/05 00:00 10.8 60 5.93 3.4 13 20 1016.3 0.8 14.0 22.6 30.9 80.5 67.5 229.9
07/05 23:50 10.5 61 5.92 3.3 13 19 1016.4 0.8 14.0 22.7 30.9 80.7 67.7 230.4
07/05 23:40 10.4 62 5.98 3.4 17 20 1016.6 0.8 14.1 22.8 31.2 81.4 68.5 233.3
07/05 23:30 10.3 63 6.03 3.6 13 24 1016.7 0.8 14.2 22.9 31.4 82.0 69.3 235.8
07/05 23:20 10.2 64 6.09 3.7 15 20 1016.8 0.8 14.4 23.0 31.7 82.8 70.1 238.8
07/05 23:10 10.1 65 6.15 3.8 11 13 1017 0.8 14.5 23.2 32.0 83.5 71.0 241.8
07/05 23:00 10.1 66 6.24 4 15 22 1017.2 0.8 14.7 23.3 32.3 84.4 72.1 245.9
07/05 22:50 10 67 6.3 4.1 13 15 1017.3 0.8 14.8 23.4 32.6 85.2 73.0 248.9
07/05 22:40 10.2 66 6.28 4.1 11 13 1017.4 0.8 14.8 23.4 32.5 84.8 72.5 247.4
07/05 22:30 10.1 67 6.34 4.3 11 17 1017.6 0.8 14.9 23.5 32.7 85.5 73.4 250.4
07/05 22:20 10.2 66 6.28 4.1 11 15 1017.8 0.8 14.8 23.4 32.5 84.8 72.6 247.5
07/05 22:10 10.1 67 6.34 4.2 13 15 1018 0.8 14.9 23.5 32.8 85.5 73.4 250.5
07/05 22:00 10.1 67 6.34 4.3 19 30 1018.2 0.8 14.9 23.5 32.8 85.6 73.5 250.5
07/05 21:50 9.9 67 6.26 4.2 15 19 1018.3 0.8 14.8 23.4 32.5 85.0 72.6 247.6
07/05 21:40 10 67 6.3 4.3 20 26 1018.2 0.8 14.8 23.5 32.7 85.3 73.0 249.1
07/05 21:30 9.8 68 6.31 4.2 15 24 1018.4 0.8 14.9 23.5 32.8 85.6 73.4 250.2
07/05 21:20 9.8 67 6.22 4.1 19 22 1018.5 0.8 14.7 23.4 32.4 84.7 72.2 246.2
07/05 21:10 9.6 69 6.32 4.2 11 15 1018.4 0.8 14.9 23.6 32.9 85.9 73.7 251.3
07/05 21:00 9.7 68 6.27 4.1 17 24 1018.5 0.8 14.8 23.5 32.7 85.3 73.0 248.7
07/05 20:50 9.6 69 6.32 4.2 13 19 1018.5 0.8 14.9 23.6 32.9 85.9 73.7 251.3
07/05 20:40 9.5 69 6.28 4.1 20 30 1018.7 0.8 14.8 23.6 32.8 85.6 73.3 249.8
07/05 20:30 9.4 70 6.33 4.2 15 26 1018.7 0.8 14.9 23.7 33.0 86.3 74.0 252.4
07/05 20:20 9.3 70 6.29 4.1 13 17 1018.7 0.8 14.8 23.6 32.9 86.0 73.6 250.9
07/05 20:10 9.2 70 6.25 4 13 17 1018.8 0.8 14.8 23.6 32.8 85.7 73.2 249.4
07/05 20:00 9.2 71 6.34 4.2 15 22 1018.8 0.8 15.0 23.8 33.2 86.6 74.3 253.5

Last Refresh: 08-May-2026 12:08:50

Bureau of Meteorology